sensor_id;sensor_type;location;lat;lon;timestamp;pressure;altitude;pressure_sealevel;temperature;humidity
8162;BME280;16778;48.154;15.094;2022-08-07T00:01:43;99412.88;;;17.05;100.00
8162;BME280;16778;48.154;15.094;2022-08-07T00:04:08;99416.47;;;17.05;100.00
8162;BME280;16778;48.154;15.094;2022-08-07T00:06:34;99422.78;;;17.06;100.00
8162;BME280;16778;48.154;15.094;2022-08-07T00:09:01;99412.66;;;17.06;100.00
8162;BME280;16778;48.154;15.094;2022-08-07T00:11:27;99421.59;;;17.02;100.00
8162;BME280;16778;48.154;15.094;2022-08-07T00:13:53;99425.66;;;16.99;100.00
8162;BME280;16778;48.154;15.094;2022-08-07T00:16:19;99417.78;;;17.03;100.00
8162;BME280;16778;48.154;15.094;2022-08-07T00:18:45;99421.69;;;17.07;100.00
8162;BME280;16778;48.154;15.094;2022-08-07T00:21:10;99423.38;;;17.08;100.00
8162;BME280;16778;48.154;15.094;2022-08-07T00:23:39;99433.28;;;17.09;100.00
8162;BME280;16778;48.154;15.094;2022-08-07T00:26:08;99431.38;;;17.09;100.00
8162;BME280;16778;48.154;15.094;2022-08-07T00:28:35;99433.03;;;17.10;100.00
8162;BME280;16778;48.154;15.094;2022-08-07T00:31:04;99429.69;;;17.08;100.00
8162;BME280;16778;48.154;15.094;2022-08-07T00:33:36;99432.94;;;17.05;100.00
8162;BME280;16778;48.154;15.094;2022-08-07T00:36:04;99428.28;;;17.06;100.00
8162;BME280;16778;48.154;15.094;2022-08-07T00:38:30;99427.44;;;17.05;100.00
8162;BME280;16778;48.154;15.094;2022-08-07T00:40:58;99423.28;;;17.03;100.00
8162;BME280;16778;48.154;15.094;2022-08-07T00:43:24;99427.34;;;17.00;100.00
8162;BME280;16778;48.154;15.094;2022-08-07T00:45:49;99421.00;;;17.00;100.00
8162;BME280;16778;48.154;15.094;2022-08-07T00:48:15;99419.81;;;16.96;100.00
8162;BME280;16778;48.154;15.094;2022-08-07T00:50:41;99417.56;;;16.93;100.00
8162;BME280;16778;48.154;15.094;2022-08-07T00:53:07;99415.91;;;16.92;100.00
8162;BME280;16778;48.154;15.094;2022-08-07T00:55:33;99416.38;;;16.89;100.00
8162;BME280;16778;48.154;15.094;2022-08-07T00:57:59;99416.97;;;16.91;100.00
8162;BME280;16778;48.154;15.094;2022-08-07T01:00:25;99417.72;;;16.86;100.00
8162;BME280;16778;48.154;15.094;2022-08-07T01:02:51;99415.44;;;16.83;100.00
8162;BME280;16778;48.154;15.094;2022-08-07T01:05:17;99415.66;;;16.81;100.00
8162;BME280;16778;48.154;15.094;2022-08-07T01:07:44;99419.50;;;16.80;100.00
8162;BME280;16778;48.154;15.094;2022-08-07T01:10:10;99424.41;;;16.78;100.00
8162;BME280;16778;48.154;15.094;2022-08-07T01:12:37;99421.66;;;16.78;100.00
8162;BME280;16778;48.154;15.094;2022-08-07T01:15:06;99417.25;;;16.77;100.00
8162;BME280;16778;48.154;15.094;2022-08-07T01:17:34;99431.91;;;16.71;100.00
8162;BME280;16778;48.154;15.094;2022-08-07T01:20:10;99422.63;;;16.72;100.00
8162;BME280;16778;48.154;15.094;2022-08-07T01:22:40;99412.25;;;16.74;100.00
8162;BME280;16778;48.154;15.094;2022-08-07T01:25:08;99411.16;;;16.75;100.00
8162;BME280;16778;48.154;15.094;2022-08-07T01:27:35;99416.66;;;16.75;100.00
8162;BME280;16778;48.154;15.094;2022-08-07T01:30:02;99411.16;;;16.75;100.00
8162;BME280;16778;48.154;15.094;2022-08-07T01:32:28;99404.00;;;16.74;100.00
8162;BME280;16778;48.154;15.094;2022-08-07T01:34:54;99412.47;;;16.73;100.00
8162;BME280;16778;48.154;15.094;2022-08-07T01:37:21;99410.56;;;16.73;100.00
8162;BME280;16778;48.154;15.094;2022-08-07T01:39:47;99403.28;;;16.67;100.00
8162;BME280;16778;48.154;15.094;2022-08-07T01:42:16;99397.22;;;16.65;100.00
8162;BME280;16778;48.154;15.094;2022-08-07T01:44:43;99395.31;;;16.66;100.00
8162;BME280;16778;48.154;15.094;2022-08-07T01:47:09;99401.63;;;16.66;100.00
8162;BME280;16778;48.154;15.094;2022-08-07T01:49:36;99399.72;;;16.67;100.00
8162;BME280;16778;48.154;15.094;2022-08-07T01:52:03;99401.63;;;16.66;100.00
8162;BME280;16778;48.154;15.094;2022-08-07T01:54:35;99397.69;;;16.62;100.00
8162;BME280;16778;48.154;15.094;2022-08-07T01:57:07;99401.53;;;16.61;100.00
8162;BME280;16778;48.154;15.094;2022-08-07T01:59:55;99400.44;;;16.62;100.00
8162;BME280;16778;48.154;15.094;2022-08-07T02:05:17;99402.13;;;16.63;100.00
8162;BME280;16778;48.154;15.094;2022-08-07T02:07:52;99394.13;;;16.62;100.00
8162;BME280;16778;48.154;15.094;2022-08-07T02:10:22;99395.22;;;16.61;100.00
8162;BME280;16778;48.154;15.094;2022-08-07T02:12:51;99388.28;;;16.58;100.00
8162;BME280;16778;48.154;15.094;2022-08-07T02:15:23;99388.78;;;16.55;100.00
8162;BME280;16778;48.154;15.094;2022-08-07T02:17:51;99389.38;;;16.57;100.00
8162;BME280;16778;48.154;15.094;2022-08-07T02:20:20;99389.94;;;16.59;100.00
8162;BME280;16778;48.154;15.094;2022-08-07T02:22:46;99384.72;;;16.58;100.00
8162;BME280;16778;48.154;15.094;2022-08-07T02:25:16;99383.66;;;16.59;100.00
8162;BME280;16778;48.154;15.094;2022-08-07T02:27:44;99378.16;;;16.59;100.00
8162;BME280;16778;48.154;15.094;2022-08-07T02:30:11;99381.13;;;16.57;100.00
8162;BME280;16778;48.154;15.094;2022-08-07T02:32:37;99380.06;;;16.58;100.00
8162;BME280;16778;48.154;15.094;2022-08-07T02:35:08;99376.97;;;16.55;100.00
8162;BME280;16778;48.154;15.094;2022-08-07T02:37:39;99373.59;;;16.53;100.00
8162;BME280;16778;48.154;15.094;2022-08-07T02:40:07;99369.56;;;16.55;100.00
8162;BME280;16778;48.154;15.094;2022-08-07T02:42:34;99365.75;;;16.56;100.00
8162;BME280;16778;48.154;15.094;2022-08-07T02:45:03;99367.41;;;16.57;100.00
8162;BME280;16778;48.154;15.094;2022-08-07T02:47:30;99366.56;;;16.57;100.00
8162;BME280;16778;48.154;15.094;2022-08-07T02:49:57;99359.19;;;16.57;100.00
8162;BME280;16778;48.154;15.094;2022-08-07T02:52:31;99366.22;;;16.53;100.00
8162;BME280;16778;48.154;15.094;2022-08-07T02:55:02;99358.94;;;16.47;100.00
8162;BME280;16778;48.154;15.094;2022-08-07T02:57:30;99352.84;;;16.45;100.00
8162;BME280;16778;48.154;15.094;2022-08-07T02:59:57;99353.47;;;16.47;100.00
8162;BME280;16778;48.154;15.094;2022-08-07T03:02:25;99350.72;;;16.47;100.00
8162;BME280;16778;48.154;15.094;2022-08-07T03:04:52;99349.63;;;16.48;100.00
8162;BME280;16778;48.154;15.094;2022-08-07T03:07:19;99345.56;;;16.51;100.00
8162;BME280;16778;48.154;15.094;2022-08-07T03:09:45;99345.81;;;16.49;100.00
8162;BME280;16778;48.154;15.094;2022-08-07T03:12:12;99351.31;;;16.49;100.00
8162;BME280;16778;48.154;15.094;2022-08-07T03:14:40;99340.56;;;16.48;100.00
8162;BME280;16778;48.154;15.094;2022-08-07T03:17:07;99340.56;;;16.48;100.00
8162;BME280;16778;48.154;15.094;2022-08-07T03:19:34;99336.16;;;16.47;100.00
8162;BME280;16778;48.154;15.094;2022-08-07T03:22:03;99341.56;;;16.42;100.00
8162;BME280;16778;48.154;15.094;2022-08-07T03:24:29;99339.38;;;16.44;100.00
8162;BME280;16778;48.154;15.094;2022-08-07T03:27:01;99331.16;;;16.44;100.00
8162;BME280;16778;48.154;15.094;2022-08-07T03:29:36;99337.22;;;16.46;100.00
8162;BME280;16778;48.154;15.094;2022-08-07T03:32:09;99332.34;;;16.48;100.00
8162;BME280;16778;48.154;15.094;2022-08-07T03:34:37;99341.41;;;16.48;100.00
8162;BME280;16778;48.154;15.094;2022-08-07T03:37:04;99342.59;;;16.52;100.00
8162;BME280;16778;48.154;15.094;2022-08-07T03:39:32;99339.84;;;16.52;100.00
8162;BME280;16778;48.154;15.094;2022-08-07T03:41:59;99343.44;;;16.53;100.00
8162;BME280;16778;48.154;15.094;2022-08-07T03:44:27;99340.69;;;16.53;100.00
8162;BME280;16778;48.154;15.094;2022-08-07T03:46:56;99348.09;;;16.52;100.00
8162;BME280;16778;48.154;15.094;2022-08-07T03:49:22;99343.91;;;16.50;100.00
8162;BME280;16778;48.154;15.094;2022-08-07T03:51:49;99339.50;;;16.49;100.00
8162;BME280;16778;48.154;15.094;2022-08-07T03:54:16;99334.75;;;16.56;100.00
8162;BME280;16778;48.154;15.094;2022-08-07T03:56:43;99343.31;;;16.59;100.00
8162;BME280;16778;48.154;15.094;2022-08-07T03:59:11;99338.44;;;16.61;100.00
8162;BME280;16778;48.154;15.094;2022-08-07T04:01:43;99345.25;;;16.59;100.00
8162;BME280;16778;48.154;15.094;2022-08-07T04:04:10;99349.41;;;16.61;100.00
8162;BME280;16778;48.154;15.094;2022-08-07T04:06:37;99338.19;;;16.63;100.00
8162;BME280;16778;48.154;15.094;2022-08-07T04:09:06;99340.72;;;16.64;100.00
8162;BME280;16778;48.154;15.094;2022-08-07T04:11:33;99357.66;;;16.61;100.00
8162;BME280;16778;48.154;15.094;2022-08-07T04:14:00;99353.81;;;16.62;100.00
8162;BME280;16778;48.154;15.094;2022-08-07T04:16:27;99357.97;;;16.65;100.00
8162;BME280;16778;48.154;15.094;2022-08-07T04:18:53;99357.75;;;16.66;100.00
8162;BME280;16778;48.154;15.094;2022-08-07T04:21:20;99357.75;;;16.66;100.00
8162;BME280;16778;48.154;15.094;2022-08-07T04:23:47;99364.06;;;16.67;100.00
8162;BME280;16778;48.154;15.094;2022-08-07T04:26:13;99365.81;;;16.73;100.00
8162;BME280;16778;48.154;15.094;2022-08-07T04:28:40;99354.25;;;16.71;100.00
8162;BME280;16778;48.154;15.094;2022-08-07T04:31:07;99363.06;;;16.73;100.00
8162;BME280;16778;48.154;15.094;2022-08-07T04:33:35;99365.34;;;16.76;100.00
8162;BME280;16778;48.154;15.094;2022-08-07T04:36:02;99368.91;;;16.76;100.00
8162;BME280;16778;48.154;15.094;2022-08-07T04:38:28;99367.84;;;16.77;100.00
8162;BME280;16778;48.154;15.094;2022-08-07T04:40:54;99372.59;;;16.82;100.00
8162;BME280;16778;48.154;15.094;2022-08-07T04:43:42;99383.94;;;16.86;100.00
8162;BME280;16778;48.154;15.094;2022-08-07T04:49:28;99387.03;;;16.89;100.00
8162;BME280;16778;48.154;15.094;2022-08-07T04:55:22;99392.72;;;16.99;100.00
8162;BME280;16778;48.154;15.094;2022-08-07T05:01:02;99397.00;;;17.07;100.00
8162;BME280;16778;48.154;15.094;2022-08-07T05:06:23;99410.81;;;17.23;100.00
8162;BME280;16778;48.154;15.094;2022-08-07T05:09:08;99409.81;;;17.29;100.00
8162;BME280;16778;48.154;15.094;2022-08-07T05:11:45;99416.84;;;17.37;100.00
8162;BME280;16778;48.154;15.094;2022-08-07T05:14:26;99426.59;;;17.45;100.00
8162;BME280;16778;48.154;15.094;2022-08-07T05:16:59;99426.81;;;17.55;100.00
8162;BME280;16778;48.154;15.094;2022-08-07T05:19:33;99421.44;;;17.60;100.00
8162;BME280;16778;48.154;15.094;2022-08-07T05:22:01;99431.41;;;17.66;100.00
8162;BME280;16778;48.154;15.094;2022-08-07T05:24:28;99435.69;;;17.73;100.00
8162;BME280;16778;48.154;15.094;2022-08-07T05:26:57;99434.44;;;17.81;100.00
8162;BME280;16778;48.154;15.094;2022-08-07T05:29:26;99431.63;;;17.92;100.00
8162;BME280;16778;48.154;15.094;2022-08-07T05:31:52;99434.22;;;17.99;100.00
8162;BME280;16778;48.154;15.094;2022-08-07T05:34:20;99437.63;;;18.06;100.00
8162;BME280;16778;48.154;15.094;2022-08-07T05:36:50;99435.47;;;18.08;100.00
8162;BME280;16778;48.154;15.094;2022-08-07T05:39:19;99448.13;;;18.26;100.00
8162;BME280;16778;48.154;15.094;2022-08-07T05:41:46;99444.88;;;18.29;100.00
8162;BME280;16778;48.154;15.094;2022-08-07T05:44:17;99439.31;;;18.40;100.00
8162;BME280;16778;48.154;15.094;2022-08-07T05:46:48;99443.19;;;18.44;100.00
8162;BME280;16778;48.154;15.094;2022-08-07T05:49:16;99451.81;;;18.48;100.00
8162;BME280;16778;48.154;15.094;2022-08-07T05:51:43;99452.41;;;18.50;100.00
8162;BME280;16778;48.154;15.094;2022-08-07T05:54:10;99448.84;;;18.49;100.00
8162;BME280;16778;48.154;15.094;2022-08-07T05:56:41;99448.66;;;18.56;100.00
8162;BME280;16778;48.154;15.094;2022-08-07T05:59:14;99451.66;;;18.55;100.00
8162;BME280;16778;48.154;15.094;2022-08-07T06:01:42;99448.66;;;18.56;100.00
8162;BME280;16778;48.154;15.094;2022-08-07T06:04:10;99451.72;;;18.60;100.00
8162;BME280;16778;48.154;15.094;2022-08-07T06:06:36;99446.78;;;18.78;100.00
8162;BME280;16778;48.154;15.094;2022-08-07T06:09:03;99444.56;;;18.97;100.00
8162;BME280;16778;48.154;15.094;2022-08-07T06:11:29;99444.00;;;19.17;100.00
8162;BME280;16778;48.154;15.094;2022-08-07T06:13:56;99450.19;;;19.29;100.00
8162;BME280;16778;48.154;15.094;2022-08-07T06:16:29;99441.69;;;19.30;100.00
8162;BME280;16778;48.154;15.094;2022-08-07T06:18:59;99444.44;;;19.52;100.00
8162;BME280;16778;48.154;15.094;2022-08-07T06:21:26;99443.78;;;19.66;100.00
8162;BME280;16778;48.154;15.094;2022-08-07T06:23:53;99449.00;;;19.90;100.00
8162;BME280;16778;48.154;15.094;2022-08-07T06:26:19;99454.16;;;20.13;100.00
8162;BME280;16778;48.154;15.094;2022-08-07T06:28:54;99446.63;;;20.30;100.00
8162;BME280;16778;48.154;15.094;2022-08-07T06:31:21;99452.59;;;20.54;100.00
8162;BME280;16778;48.154;15.094;2022-08-07T06:33:47;99465.72;;;20.73;100.00
8162;BME280;16778;48.154;15.094;2022-08-07T06:36:14;99449.00;;;20.95;100.00
8162;BME280;16778;48.154;15.094;2022-08-07T06:38:41;99460.03;;;20.95;100.00
8162;BME280;16778;48.154;15.094;2022-08-07T06:41:39;99462.13;;;21.15;100.00
8162;BME280;16778;48.154;15.094;2022-08-07T06:44:09;99457.19;;;20.80;100.00
8162;BME280;16778;48.154;15.094;2022-08-07T06:46:36;99458.47;;;20.62;100.00
8162;BME280;16778;48.154;15.094;2022-08-07T06:49:03;99453.19;;;21.03;100.00
8162;BME280;16778;48.154;15.094;2022-08-07T06:51:29;99464.38;;;21.28;100.00
8162;BME280;16778;48.154;15.094;2022-08-07T06:53:59;99463.41;;;21.59;100.00
8162;BME280;16778;48.154;15.094;2022-08-07T06:56:29;99462.16;;;21.92;100.00
8162;BME280;16778;48.154;15.094;2022-08-07T06:59:14;99460.47;;;21.91;100.00
8162;BME280;16778;48.154;15.094;2022-08-07T07:01:42;99463.75;;;21.78;100.00
8162;BME280;16778;48.154;15.094;2022-08-07T07:04:08;99469.31;;;21.98;100.00
8162;BME280;16778;48.154;15.094;2022-08-07T07:06:35;99463.53;;;21.94;100.00
8162;BME280;16778;48.154;15.094;2022-08-07T07:09:23;99466.84;;;21.91;100.00
8162;BME280;16778;48.154;15.094;2022-08-07T07:14:59;99467.19;;;21.33;100.00
8162;BME280;16778;48.154;15.094;2022-08-07T07:20:24;99463.41;;;21.02;100.00
8162;BME280;16778;48.154;15.094;2022-08-07T07:22:52;99456.44;;;20.95;100.00
8162;BME280;16778;48.154;15.094;2022-08-07T07:25:19;99457.06;;;21.02;100.00
8162;BME280;16778;48.154;15.094;2022-08-07T07:28:00;99458.78;;;21.08;100.00
8162;BME280;16778;48.154;15.094;2022-08-07T07:30:32;99467.72;;;21.30;100.00
8162;BME280;16778;48.154;15.094;2022-08-07T07:33:00;99457.25;;;21.42;100.00
8162;BME280;16778;48.154;15.094;2022-08-07T07:35:28;99465.31;;;21.54;100.00
8162;BME280;16778;48.154;15.094;2022-08-07T07:37:55;99464.00;;;21.71;100.00
8162;BME280;16778;48.154;15.094;2022-08-07T07:40:22;99464.03;;;21.86;100.00
8162;BME280;16778;48.154;15.094;2022-08-07T07:42:52;99455.22;;;21.94;100.00
8162;BME280;16778;48.154;15.094;2022-08-07T07:45:24;99452.22;;;22.06;100.00
8162;BME280;16778;48.154;15.094;2022-08-07T07:47:54;99458.25;;;21.93;100.00
8162;BME280;16778;48.154;15.094;2022-08-07T07:50:23;99460.22;;;22.03;100.00
8162;BME280;16778;48.154;15.094;2022-08-07T07:52:51;99445.84;;;22.21;100.00
8162;BME280;16778;48.154;15.094;2022-08-07T07:55:18;99447.50;;;22.42;100.00
8162;BME280;16778;48.154;15.094;2022-08-07T07:57:48;99454.44;;;22.44;100.00
8162;BME280;16778;48.154;15.094;2022-08-07T08:00:15;99445.28;;;22.44;100.00
8162;BME280;16778;48.154;15.094;2022-08-07T08:02:44;99444.19;;;22.35;100.00
8162;BME280;16778;48.154;15.094;2022-08-07T08:05:13;99444.72;;;22.52;100.00
8162;BME280;16778;48.154;15.094;2022-08-07T08:07:41;99439.19;;;22.32;100.00
8162;BME280;16778;48.154;15.094;2022-08-07T08:10:09;99440.03;;;22.22;100.00
8162;BME280;16778;48.154;15.094;2022-08-07T08:12:36;99438.91;;;22.08;100.00
8162;BME280;16778;48.154;15.094;2022-08-07T08:15:02;99447.22;;;22.13;100.00
8162;BME280;16778;48.154;15.094;2022-08-07T08:17:28;99445.28;;;22.14;100.00
8162;BME280;16778;48.154;15.094;2022-08-07T08:20:04;99442.50;;;22.44;100.00
8162;BME280;16778;48.154;15.094;2022-08-07T08:22:34;99445.28;;;22.29;100.00
8162;BME280;16778;48.154;15.094;2022-08-07T08:25:21;99448.06;;;22.34;100.00
8162;BME280;16778;48.154;15.094;2022-08-07T08:28:11;99443.63;;;22.58;100.00
8162;BME280;16778;48.154;15.094;2022-08-07T08:30:40;99442.81;;;22.73;100.00
8162;BME280;16778;48.154;15.094;2022-08-07T08:33:08;99441.38;;;22.95;100.00
8162;BME280;16778;48.154;15.094;2022-08-07T08:35:42;99444.69;;;22.82;100.00
8162;BME280;16778;48.154;15.094;2022-08-07T08:38:12;99440.81;;;22.98;100.00
8162;BME280;16778;48.154;15.094;2022-08-07T08:41:46;99433.28;;;23.09;100.00
8162;BME280;16778;48.154;15.094;2022-08-07T08:46:55;99428.25;;;23.80;100.00
8162;BME280;16778;48.154;15.094;2022-08-07T08:50:06;99432.34;;;23.34;98.97
8162;BME280;16778;48.154;15.094;2022-08-07T08:52:39;99436.81;;;23.89;98.51
8162;BME280;16778;48.154;15.094;2022-08-07T08:55:36;99443.31;;;24.08;94.62
8162;BME280;16778;48.154;15.094;2022-08-07T08:58:14;99444.75;;;24.00;94.49
8162;BME280;16778;48.154;15.094;2022-08-07T09:00:50;99436.75;;;23.94;92.86
8162;BME280;16778;48.154;15.094;2022-08-07T09:06:34;99440.22;;;24.19;95.95
8162;BME280;16778;48.154;15.094;2022-08-07T09:11:49;99441.59;;;24.51;90.90
8162;BME280;16778;48.154;15.094;2022-08-07T09:23:08;99430.00;;;24.10;90.75
8162;BME280;16778;48.154;15.094;2022-08-07T09:26:13;99431.81;;;24.87;89.06
8162;BME280;16778;48.154;15.094;2022-08-07T09:28:42;99422.66;;;25.10;87.25
8162;BME280;16778;48.154;15.094;2022-08-07T09:37:50;99423.97;;;26.21;79.98
8162;BME280;16778;48.154;15.094;2022-08-07T09:41:02;99424.94;;;25.93;77.14
8162;BME280;16778;48.154;15.094;2022-08-07T09:53:06;99418.06;;;25.85;76.17
8162;BME280;16778;48.154;15.094;2022-08-07T10:04:05;99407.19;;;26.40;74.77
8162;BME280;16778;48.154;15.094;2022-08-07T10:07:12;99407.38;;;26.76;75.26
8162;BME280;16778;48.154;15.094;2022-08-07T10:12:46;99398.00;;;26.72;75.44
8162;BME280;16778;48.154;15.094;2022-08-07T10:15:28;99387.91;;;27.17;73.82
8162;BME280;16778;48.154;15.094;2022-08-07T10:30:10;99393.88;;;27.51;67.39
8162;BME280;16778;48.154;15.094;2022-08-07T10:41:43;99384.97;;;27.76;68.15
8162;BME280;16778;48.154;15.094;2022-08-07T10:55:40;99363.97;;;27.02;64.27
8162;BME280;16778;48.154;15.094;2022-08-07T11:04:12;99359.84;;;25.89;71.85
8162;BME280;16778;48.154;15.094;2022-08-07T11:09:46;99361.00;;;26.20;76.41
8162;BME280;16778;48.154;15.094;2022-08-07T11:12:28;99354.56;;;26.38;72.02
8162;BME280;16778;48.154;15.094;2022-08-07T11:15:05;99353.16;;;26.68;75.65
8162;BME280;16778;48.154;15.094;2022-08-07T11:17:53;99347.53;;;26.87;74.63
8162;BME280;16778;48.154;15.094;2022-08-07T11:20:40;99354.22;;;27.13;72.41
8162;BME280;16778;48.154;15.094;2022-08-07T11:23:30;99344.91;;;27.31;71.23
8162;BME280;16778;48.154;15.094;2022-08-07T11:26:20;99346.72;;;27.00;72.54
8162;BME280;16778;48.154;15.094;2022-08-07T11:29:09;99343.22;;;26.94;72.54
8162;BME280;16778;48.154;15.094;2022-08-07T11:34:54;99342.84;;;27.37;70.24
8162;BME280;16778;48.154;15.094;2022-08-07T11:54:35;99325.06;;;27.46;68.02
8162;BME280;16778;48.154;15.094;2022-08-07T11:57:31;99325.38;;;27.31;66.36
8162;BME280;16778;48.154;15.094;2022-08-07T12:00:13;99319.94;;;26.99;67.59
8162;BME280;16778;48.154;15.094;2022-08-07T12:08:49;99314.28;;;26.90;65.62
8162;BME280;16778;48.154;15.094;2022-08-07T12:11:45;99318.00;;;26.99;67.36
8162;BME280;16778;48.154;15.094;2022-08-07T12:14:18;99310.44;;;26.86;69.89
8162;BME280;16778;48.154;15.094;2022-08-07T12:17:06;99308.56;;;26.55;67.22
8162;BME280;16778;48.154;15.094;2022-08-07T12:20:01;99309.16;;;26.38;70.75
8162;BME280;16778;48.154;15.094;2022-08-07T12:26:04;99309.22;;;25.87;73.46
8162;BME280;16778;48.154;15.094;2022-08-07T12:34:39;99305.69;;;24.83;77.78
8162;BME280;16778;48.154;15.094;2022-08-07T12:37:08;99302.66;;;25.03;75.36
8162;BME280;16778;48.154;15.094;2022-08-07T12:39:36;99302.94;;;25.02;78.61
8162;BME280;16778;48.154;15.094;2022-08-07T12:42:04;99294.75;;;25.10;78.82
8162;BME280;16778;48.154;15.094;2022-08-07T12:44:33;99299.28;;;25.06;76.05
8162;BME280;16778;48.154;15.094;2022-08-07T12:52:40;99297.09;;;25.22;76.02
8162;BME280;16778;48.154;15.094;2022-08-07T12:55:57;99300.84;;;24.94;76.04
8162;BME280;16778;48.154;15.094;2022-08-07T12:58:15;99300.41;;;25.05;76.88
8162;BME280;16778;48.154;15.094;2022-08-07T13:07:13;99297.53;;;24.92;76.50
8162;BME280;16778;48.154;15.094;2022-08-07T13:10:13;99288.53;;;25.00;79.84
8162;BME280;16778;48.154;15.094;2022-08-07T13:13:16;99290.06;;;24.87;78.95
8162;BME280;16778;48.154;15.094;2022-08-07T13:21:44;99278.94;;;24.40;81.73
8162;BME280;16778;48.154;15.094;2022-08-07T13:24:17;99278.19;;;24.58;81.86
8162;BME280;16778;48.154;15.094;2022-08-07T13:27:03;99278.53;;;24.75;82.28
8162;BME280;16778;48.154;15.094;2022-08-07T13:29:57;99272.75;;;24.95;82.42
8162;BME280;16778;48.154;15.094;2022-08-07T13:32:37;99268.91;;;24.91;80.88
8162;BME280;16778;48.154;15.094;2022-08-07T13:40:52;99267.97;;;25.57;74.75
8162;BME280;16778;48.154;15.094;2022-08-07T13:43:24;99260.22;;;25.54;76.78
8162;BME280;16778;48.154;15.094;2022-08-07T13:45:59;99256.66;;;25.29;79.35
8162;BME280;16778;48.154;15.094;2022-08-07T13:48:28;99256.09;;;25.51;76.09
8162;BME280;16778;48.154;15.094;2022-08-07T13:50:55;99249.97;;;25.49;77.06
8162;BME280;16778;48.154;15.094;2022-08-07T13:53:30;99252.69;;;25.35;76.64
8162;BME280;16778;48.154;15.094;2022-08-07T13:55:58;99252.38;;;25.18;80.03
8162;BME280;16778;48.154;15.094;2022-08-07T13:58:25;99247.44;;;25.53;78.38
8162;BME280;16778;48.154;15.094;2022-08-07T14:01:15;99244.97;;;25.83;77.25
8162;BME280;16778;48.154;15.094;2022-08-07T14:03:43;99247.78;;;25.97;74.32
8162;BME280;16778;48.154;15.094;2022-08-07T14:06:10;99244.44;;;25.81;76.25
8162;BME280;16778;48.154;15.094;2022-08-07T14:08:46;99239.59;;;25.36;77.57
8162;BME280;16778;48.154;15.094;2022-08-07T14:11:18;99236.81;;;24.99;78.28
8162;BME280;16778;48.154;15.094;2022-08-07T14:13:52;99240.16;;;24.77;80.71
8162;BME280;16778;48.154;15.094;2022-08-07T14:16:30;99236.94;;;24.70;82.80
8162;BME280;16778;48.154;15.094;2022-08-07T14:19:00;99231.19;;;24.61;89.90
8162;BME280;16778;48.154;15.094;2022-08-07T14:21:49;99240.47;;;24.52;84.75
8162;BME280;16778;48.154;15.094;2022-08-07T14:24:46;99238.41;;;24.15;86.33
8162;BME280;16778;48.154;15.094;2022-08-07T14:27:15;99236.94;;;23.94;88.07
8162;BME280;16778;48.154;15.094;2022-08-07T14:29:48;99236.56;;;24.00;89.01
8162;BME280;16778;48.154;15.094;2022-08-07T14:32:18;99233.22;;;24.03;90.10
8162;BME280;16778;48.154;15.094;2022-08-07T14:34:46;99231.53;;;24.07;89.37
8162;BME280;16778;48.154;15.094;2022-08-07T14:37:16;99232.28;;;24.18;96.72
8162;BME280;16778;48.154;15.094;2022-08-07T14:39:45;99234.47;;;24.21;100.00
8162;BME280;16778;48.154;15.094;2022-08-07T14:42:13;99238.53;;;24.29;100.00
8162;BME280;16778;48.154;15.094;2022-08-07T14:44:45;99234.06;;;24.33;100.00
8162;BME280;16778;48.154;15.094;2022-08-07T14:47:16;99223.81;;;24.28;100.00
8162;BME280;16778;48.154;15.094;2022-08-07T14:49:44;99230.84;;;24.20;100.00
8162;BME280;16778;48.154;15.094;2022-08-07T14:52:12;99222.66;;;24.10;100.00
8162;BME280;16778;48.154;15.094;2022-08-07T14:54:40;99229.47;;;23.89;100.00
8162;BME280;16778;48.154;15.094;2022-08-07T14:57:12;99224.47;;;23.62;100.00
8162;BME280;16778;48.154;15.094;2022-08-07T14:59:40;99223.44;;;23.53;100.00
8162;BME280;16778;48.154;15.094;2022-08-07T15:04:45;99223.53;;;23.38;100.00
8162;BME280;16778;48.154;15.094;2022-08-07T15:07:21;99211.25;;;23.16;100.00
8162;BME280;16778;48.154;15.094;2022-08-07T15:09:51;99221.13;;;22.83;100.00
8162;BME280;16778;48.154;15.094;2022-08-07T15:12:39;99215.03;;;22.86;100.00
8162;BME280;16778;48.154;15.094;2022-08-07T15:15:11;99205.03;;;22.90;100.00
8162;BME280;16778;48.154;15.094;2022-08-07T15:17:42;99201.28;;;22.61;100.00
8162;BME280;16778;48.154;15.094;2022-08-07T15:20:11;99202.94;;;22.62;100.00
8162;BME280;16778;48.154;15.094;2022-08-07T15:22:49;99205.41;;;22.63;100.00
8162;BME280;16778;48.154;15.094;2022-08-07T15:25:25;99197.41;;;22.62;100.00
8162;BME280;16778;48.154;15.094;2022-08-07T15:28:00;99194.34;;;22.68;100.00
8162;BME280;16778;48.154;15.094;2022-08-07T15:30:28;99199.03;;;22.73;100.00
8162;BME280;16778;48.154;15.094;2022-08-07T15:32:57;99198.75;;;22.74;100.00
8162;BME280;16778;48.154;15.094;2022-08-07T15:35:25;99204.00;;;22.76;100.00
8162;BME280;16778;48.154;15.094;2022-08-07T15:38:00;99200.41;;;22.75;100.00
8162;BME280;16778;48.154;15.094;2022-08-07T15:40:30;99194.06;;;22.70;100.00
8162;BME280;16778;48.154;15.094;2022-08-07T15:45:36;99197.72;;;22.65;100.00
8162;BME280;16778;48.154;15.094;2022-08-07T15:50:44;99202.19;;;22.51;100.00
8162;BME280;16778;48.154;15.094;2022-08-07T15:53:32;99199.34;;;22.66;100.00
8162;BME280;16778;48.154;15.094;2022-08-07T15:56:03;99192.94;;;22.76;100.00
8162;BME280;16778;48.154;15.094;2022-08-07T16:01:31;99202.81;;;22.92;100.00
8162;BME280;16778;48.154;15.094;2022-08-07T16:04:11;99191.16;;;22.95;100.00
8162;BME280;16778;48.154;15.094;2022-08-07T16:06:53;99185.06;;;23.32;100.00
8162;BME280;16778;48.154;15.094;2022-08-07T16:09:48;99180.09;;;23.62;100.00
8162;BME280;16778;48.154;15.094;2022-08-07T16:22:10;99177.94;;;22.82;100.00
8162;BME280;16778;48.154;15.094;2022-08-07T16:24:58;99180.19;;;22.75;100.00
8162;BME280;16778;48.154;15.094;2022-08-07T16:27:34;99179.91;;;22.76;100.00